createdAt,value
2023-01-27T00:00:40.965Z,82.90
2023-01-27T00:03:14.280Z,82.73
2023-01-27T00:05:42.951Z,82.48
2023-01-27T00:08:11.730Z,82.48
2023-01-27T00:10:40.428Z,82.57
2023-01-27T00:13:28.249Z,82.68
2023-01-27T00:15:57.990Z,82.80
2023-01-27T00:18:27.168Z,82.89
2023-01-27T00:21:15.195Z,82.81
2023-01-27T00:24:02.581Z,82.85
2023-01-27T00:26:31.745Z,82.81
2023-01-27T00:29:00.610Z,82.87
2023-01-27T00:31:47.812Z,83.05
2023-01-27T00:34:16.617Z,82.91
2023-01-27T00:36:45.200Z,82.97
2023-01-27T00:39:15.561Z,83.12
2023-01-27T00:41:45.471Z,82.99
2023-01-27T00:44:14.041Z,83.06
2023-01-27T00:46:47.589Z,83.27
2023-01-27T00:49:16.329Z,83.13
2023-01-27T00:51:45.094Z,83.22
2023-01-27T00:54:18.195Z,83.02
2023-01-27T00:56:48.692Z,82.95
2023-01-27T00:59:17.212Z,83.10
2023-01-27T01:01:50.597Z,83.02
2023-01-27T01:04:19.175Z,82.95
2023-01-27T01:06:48.471Z,82.80
2023-01-27T01:09:17.584Z,82.70
2023-01-27T01:11:46.153Z,82.59
2023-01-27T01:14:15.349Z,82.60
2023-01-27T01:16:44.760Z,82.79
2023-01-27T01:19:14.357Z,83.00
2023-01-27T01:21:42.983Z,82.74
2023-01-27T01:24:12.082Z,82.81
2023-01-27T01:26:40.732Z,82.79
2023-01-27T01:29:10.430Z,82.77
2023-01-27T01:31:41.095Z,82.68
2023-01-27T01:34:09.851Z,82.84
2023-01-27T01:36:39.351Z,83.03
2023-01-27T01:39:08.249Z,83.16
2023-01-27T01:41:37.342Z,83.28
2023-01-27T01:44:25.478Z,83.10
2023-01-27T01:46:54.966Z,82.84
2023-01-27T01:49:29.513Z,83.07
2023-01-27T01:52:01.130Z,83.16
2023-01-27T01:54:33.840Z,83.23
2023-01-27T01:57:10.728Z,83.31
2023-01-27T01:59:45.037Z,83.13
2023-01-27T02:02:15.299Z,83.11
2023-01-27T02:04:48.446Z,82.75
2023-01-27T02:07:18.570Z,82.69
2023-01-27T02:09:47.095Z,82.60
2023-01-27T02:12:15.937Z,82.86
2023-01-27T02:14:46.979Z,83.14
2023-01-27T02:17:16.091Z,83.14
2023-01-27T02:20:11.291Z,82.96
2023-01-27T02:22:45.815Z,82.79
2023-01-27T02:25:22.505Z,82.68
2023-01-27T02:27:53.523Z,82.60
2023-01-27T02:30:22.419Z,82.78
2023-01-27T02:32:51.604Z,82.96
2023-01-27T02:35:43.154Z,82.87
2023-01-27T02:38:13.142Z,82.77
2023-01-27T02:40:41.725Z,82.86
2023-01-27T02:43:10.621Z,82.75
2023-01-27T02:45:39.555Z,82.92
2023-01-27T02:48:08.191Z,83.10
2023-01-27T02:50:38.515Z,83.52
2023-01-27T02:53:08.350Z,83.56
2023-01-27T02:55:37.744Z,84.08
2023-01-27T02:58:06.825Z,83.91
2023-01-27T03:00:47.436Z,84.13
2023-01-27T03:03:16.291Z,83.94
2023-01-27T03:05:45.683Z,84.12
2023-01-27T03:08:14.268Z,84.07
2023-01-27T03:10:44.098Z,84.02
2023-01-27T03:13:12.865Z,83.88
2023-01-27T03:16:00.359Z,83.88
2023-01-27T03:18:29.896Z,83.33
2023-01-27T03:21:06.838Z,83.02
2023-01-27T03:23:35.459Z,82.76
2023-01-27T03:26:07.110Z,82.60
2023-01-27T03:28:36.559Z,83.24
2023-01-27T03:31:10.541Z,83.23
2023-01-27T03:33:47.979Z,83.37
2023-01-27T03:37:02.071Z,83.22
2023-01-27T03:39:49.660Z,83.00
2023-01-27T03:42:36.821Z,82.83
2023-01-27T03:45:25.263Z,82.78
2023-01-27T03:47:54.151Z,82.65
2023-01-27T03:50:37.965Z,82.57
2023-01-27T03:53:07.395Z,82.98
2023-01-27T03:55:37.105Z,82.58
2023-01-27T03:58:20.560Z,82.36
2023-01-27T04:00:54.257Z,81.40
2023-01-27T04:03:43.105Z,81.38
2023-01-27T04:06:52.035Z,81.52
2023-01-27T04:09:23.793Z,81.63
2023-01-27T04:11:55.688Z,81.72
2023-01-27T04:14:31.295Z,81.97
2023-01-27T04:17:15.031Z,81.70
2023-01-27T04:19:43.835Z,81.91
2023-01-27T04:22:13.327Z,81.65
2023-01-27T04:24:43.958Z,81.75
2023-01-27T04:27:14.280Z,81.59
2023-01-27T04:29:43.000Z,81.78
2023-01-27T04:32:12.989Z,81.76
2023-01-27T04:34:41.690Z,81.65
2023-01-27T04:37:10.669Z,81.37
2023-01-27T04:39:42.117Z,81.22
2023-01-27T04:42:11.206Z,80.98
2023-01-27T04:44:40.017Z,80.84
2023-01-27T04:47:09.091Z,80.82
2023-01-27T04:49:37.776Z,80.80
2023-01-27T04:52:07.016Z,81.06
2023-01-27T04:54:36.293Z,81.11
2023-01-27T04:57:05.986Z,81.32
2023-01-27T04:59:34.670Z,81.17
2023-01-27T05:02:05.031Z,81.35
2023-01-27T05:04:34.017Z,81.88
2023-01-27T05:07:03.085Z,81.83
2023-01-27T05:09:32.077Z,82.20
2023-01-27T05:12:00.867Z,82.06
2023-01-27T05:14:30.523Z,82.16
2023-01-27T05:16:59.237Z,82.15
2023-01-27T05:19:28.147Z,82.03
2023-01-27T05:21:57.144Z,81.63
2023-01-27T05:24:25.874Z,81.73
2023-01-27T05:26:58.105Z,81.72
2023-01-27T05:29:26.794Z,81.82
2023-01-27T05:31:55.900Z,81.87
2023-01-27T05:34:25.074Z,82.11
2023-01-27T05:36:53.737Z,82.27
2023-01-27T05:39:22.747Z,82.22
2023-01-27T05:41:51.468Z,82.07
2023-01-27T05:44:20.325Z,81.91
2023-01-27T05:46:49.484Z,82.03
2023-01-27T05:49:18.207Z,82.08
2023-01-27T05:51:47.515Z,81.94
2023-01-27T05:54:16.706Z,82.08
2023-01-27T05:56:45.293Z,81.88
2023-01-27T05:59:14.075Z,82.38
2023-01-27T06:01:42.728Z,82.19
2023-01-27T06:04:11.870Z,82.10
2023-01-27T06:06:41.262Z,82.12
2023-01-27T06:09:10.666Z,82.03
2023-01-27T06:11:39.252Z,82.17
2023-01-27T06:14:12.440Z,82.19
2023-01-27T06:16:41.585Z,82.21
2023-01-27T06:19:10.937Z,82.20
2023-01-27T06:21:39.746Z,82.07
2023-01-27T06:24:08.658Z,82.00
2023-01-27T06:26:37.517Z,81.90
2023-01-27T06:29:06.390Z,81.86
2023-01-27T06:31:36.582Z,81.89
2023-01-27T06:34:05.604Z,81.73
2023-01-27T06:36:34.613Z,81.62
2023-01-27T06:39:03.387Z,81.38
2023-01-27T06:41:32.180Z,81.71
2023-01-27T06:44:03.726Z,81.46
2023-01-27T06:46:33.460Z,81.42
2023-01-27T06:49:02.246Z,81.46
2023-01-27T06:51:31.637Z,81.36
2023-01-27T06:54:01.023Z,81.31
2023-01-27T06:56:30.844Z,81.07
2023-01-27T06:59:00.245Z,80.92
2023-01-27T07:01:30.193Z,80.95
2023-01-27T07:03:59.378Z,81.00
2023-01-27T07:06:28.505Z,80.94
2023-01-27T07:08:57.653Z,81.19
2023-01-27T07:11:29.138Z,81.41
2023-01-27T07:13:58.295Z,81.42
2023-01-27T07:16:29.505Z,81.29
2023-01-27T07:18:59.558Z,80.87
2023-01-27T07:21:28.660Z,80.66
2023-01-27T07:23:57.496Z,80.54
2023-01-27T07:26:26.125Z,80.72
2023-01-27T07:28:56.479Z,80.69
2023-01-27T07:31:25.128Z,80.66
2023-01-27T07:33:55.983Z,80.67
2023-01-27T11:05:49.105Z,76.49
2023-01-27T11:08:25.160Z,76.68
2023-01-27T11:11:17.676Z,76.56
2023-01-27T11:13:49.953Z,76.41
2023-01-27T11:16:35.860Z,76.04
2023-01-27T11:19:30.980Z,75.37
2023-01-27T11:22:08.058Z,75.14
2023-01-27T11:24:46.875Z,74.69
2023-01-27T11:27:23.540Z,74.21
2023-01-27T11:29:56.010Z,73.46
2023-01-27T11:32:39.924Z,72.66
2023-01-27T11:35:12.474Z,72.64
2023-01-27T11:37:42.344Z,72.62
2023-01-27T11:40:26.586Z,72.53
2023-01-27T11:42:58.357Z,72.09
2023-01-27T11:45:29.222Z,71.99
2023-01-27T11:48:00.112Z,71.67
2023-01-27T11:50:35.161Z,71.55
2023-01-27T11:53:18.634Z,71.71
2023-01-27T11:55:55.381Z,71.54
2023-01-27T11:58:32.837Z,71.08
2023-01-27T12:01:23.229Z,70.65
2023-01-27T12:04:10.537Z,70.81
2023-01-27T12:06:46.005Z,70.47
2023-01-27T12:09:41.845Z,70.26
2023-01-27T12:12:23.099Z,70.32
2023-01-27T12:14:59.849Z,70.30
2023-01-27T12:17:34.938Z,70.35
2023-01-27T12:20:25.217Z,70.24
2023-01-27T12:22:54.349Z,70.08
2023-01-27T12:25:28.076Z,69.78
2023-01-27T12:28:01.712Z,69.69
2023-01-27T12:30:34.630Z,69.89
2023-01-27T12:33:14.990Z,69.29
2023-01-27T12:35:44.058Z,69.40
2023-01-27T12:38:15.026Z,69.13
2023-01-27T12:40:47.060Z,68.84
2023-01-27T12:43:17.299Z,68.91
2023-01-27T12:45:46.392Z,69.08
2023-01-27T12:48:18.386Z,69.52
2023-01-27T12:50:50.114Z,69.86
2023-01-27T12:53:28.057Z,69.88
2023-01-27T12:56:06.115Z,70.06
2023-01-27T12:58:40.538Z,69.90
2023-01-27T13:01:32.224Z,69.98
2023-01-27T13:04:06.621Z,70.01
2023-01-27T13:06:45.449Z,70.32
2023-01-27T13:09:32.305Z,70.76
2023-01-27T13:12:17.179Z,70.78
2023-01-27T13:14:46.240Z,71.13
2023-01-27T13:17:30.617Z,71.46
2023-01-27T13:20:08.331Z,71.59
2023-01-27T13:22:42.183Z,71.48
2023-01-27T13:25:17.004Z,71.69
2023-01-27T13:27:46.865Z,71.74
2023-01-27T13:30:24.362Z,71.83
2023-01-27T13:32:53.764Z,72.09
2023-01-27T13:35:35.023Z,72.02
2023-01-27T13:38:18.715Z,72.24
2023-01-27T13:40:49.306Z,72.56
2023-01-27T13:43:21.346Z,72.84
2023-01-27T13:46:03.201Z,72.72
2023-01-27T13:48:39.554Z,72.82
2023-01-27T13:51:12.227Z,72.78
2023-01-27T13:53:42.967Z,72.74
2023-01-27T13:56:11.535Z,72.94
2023-01-27T13:59:20.090Z,72.89
2023-01-27T14:05:10.970Z,73.03
2023-01-27T14:07:51.698Z,73.50
2023-01-27T14:10:34.769Z,73.59
2023-01-27T14:13:19.017Z,73.66
2023-01-27T14:16:13.939Z,73.28
2023-01-27T14:18:48.961Z,73.34
2023-01-27T14:21:40.248Z,73.33
2023-01-27T14:24:44.211Z,73.66
2023-01-27T14:27:20.766Z,73.48
2023-01-27T14:30:10.187Z,73.29
2023-01-27T14:33:16.940Z,73.71
2023-01-27T14:35:53.337Z,73.82
2023-01-27T14:38:43.451Z,73.85
2023-01-27T14:41:27.825Z,73.54
2023-01-27T14:44:12.669Z,73.39
2023-01-27T14:47:11.869Z,72.99
2023-01-27T14:50:13.432Z,73.33
2023-01-27T14:52:44.953Z,73.12
2023-01-27T14:55:19.605Z,73.47
2023-01-27T14:57:52.244Z,73.22
2023-01-27T15:00:43.622Z,73.92
2023-01-27T15:03:47.714Z,73.90
2023-01-27T15:06:39.338Z,73.91
2023-01-27T15:09:14.373Z,73.87
2023-01-27T15:11:56.368Z,73.65
2023-01-27T15:14:49.843Z,73.76
2023-01-27T15:17:43.593Z,73.64
2023-01-27T15:20:31.165Z,73.85
2023-01-27T15:23:29.872Z,74.08
2023-01-27T15:26:03.019Z,74.34
2023-01-27T15:28:32.842Z,74.33
2023-01-27T15:31:19.795Z,74.33
2023-01-27T15:33:51.835Z,74.04
2023-01-27T15:36:32.994Z,74.04
2023-01-27T15:39:02.440Z,73.69
2023-01-27T15:41:32.522Z,73.96
2023-01-27T15:44:19.113Z,73.78
2023-01-27T15:47:13.063Z,74.08
2023-01-27T15:50:00.565Z,74.11
2023-01-27T15:52:43.044Z,74.25
2023-01-27T15:55:32.297Z,74.11
2023-01-27T15:58:10.329Z,73.97
2023-01-27T16:00:42.755Z,73.97
2023-01-27T16:03:35.437Z,73.98
2023-01-27T16:06:10.015Z,73.92
2023-01-27T16:09:06.389Z,74.03
2023-01-27T16:11:35.289Z,73.71
2023-01-27T16:14:14.500Z,73.99
2023-01-27T16:16:55.296Z,73.86
2023-01-27T16:20:13.825Z,74.11
2023-01-27T16:22:42.719Z,73.98
2023-01-27T16:25:18.223Z,73.61
2023-01-27T16:28:22.488Z,73.37
2023-01-27T16:31:02.746Z,73.51
2023-01-27T16:33:41.284Z,73.40
2023-01-27T16:36:24.990Z,73.59
2023-01-27T16:39:08.712Z,73.85
2023-01-27T16:41:40.313Z,73.98
2023-01-27T16:44:23.333Z,73.86
2023-01-27T16:46:54.689Z,73.71
2023-01-27T16:49:32.267Z,73.65
2023-01-27T16:52:03.790Z,73.50
2023-01-27T16:54:42.967Z,73.70
2023-01-27T16:57:30.565Z,73.24
2023-01-27T17:00:00.664Z,73.58
2023-01-27T17:02:29.595Z,73.79
2023-01-27T17:05:05.018Z,73.61
2023-01-27T17:07:35.066Z,73.86
2023-01-27T17:10:24.400Z,74.02
2023-01-27T17:13:03.260Z,73.84
2023-01-27T17:15:37.049Z,73.77
2023-01-27T17:18:09.671Z,73.67
2023-01-27T17:20:41.950Z,73.84
2023-01-27T17:23:20.852Z,73.81
2023-01-27T17:25:51.092Z,73.58
2023-01-27T17:28:26.797Z,73.67
2023-01-27T17:31:08.045Z,73.85
2023-01-27T17:33:38.663Z,73.97
2023-01-27T17:36:10.361Z,73.83
2023-01-27T17:38:48.576Z,73.96
2023-01-27T17:41:35.738Z,73.97
2023-01-27T17:44:11.257Z,74.39
2023-01-27T17:46:40.064Z,74.51
2023-01-27T17:49:13.514Z,75.06
2023-01-27T17:51:51.629Z,75.33
2023-01-27T17:54:32.895Z,75.88
2023-01-27T17:57:21.402Z,76.16
2023-01-27T18:00:10.004Z,76.29
2023-01-27T18:03:03.135Z,76.62
2023-01-27T18:05:36.173Z,76.51
2023-01-27T18:08:07.292Z,76.67
2023-01-27T18:10:44.369Z,76.90
2023-01-27T18:13:16.660Z,76.89
2023-01-27T18:15:51.854Z,77.14
2023-01-27T18:18:24.768Z,77.33
2023-01-27T18:20:59.690Z,77.42
2023-01-27T18:23:56.469Z,77.28
2023-01-27T18:26:26.557Z,76.92
2023-01-27T18:29:00.972Z,76.65
2023-01-27T18:31:38.551Z,76.26
2023-01-27T18:34:07.265Z,76.25
2023-01-27T18:36:37.705Z,76.25
2023-01-27T18:39:38.825Z,76.43
2023-01-27T18:42:15.885Z,76.18
2023-01-27T18:44:44.709Z,76.56
2023-01-27T18:47:19.781Z,76.71
2023-01-27T18:50:13.000Z,76.17
2023-01-27T18:52:42.451Z,75.88
2023-01-27T18:55:22.710Z,75.75
2023-01-27T18:57:53.417Z,75.53
2023-01-27T19:00:25.328Z,75.24
2023-01-27T19:02:56.553Z,75.50
2023-01-27T19:05:27.439Z,75.58
2023-01-27T19:07:55.910Z,75.65
2023-01-27T19:10:28.555Z,75.78
2023-01-27T19:12:59.576Z,75.42
2023-01-27T19:15:29.142Z,75.28
2023-01-27T19:17:59.097Z,74.95
2023-01-27T19:20:29.226Z,74.92
2023-01-27T19:22:58.606Z,74.82
2023-01-27T19:25:29.440Z,74.62
2023-01-27T19:28:03.573Z,75.01
2023-01-27T19:30:36.484Z,74.92
2023-01-27T19:33:28.146Z,74.75
2023-01-27T19:35:59.014Z,74.67
2023-01-27T19:38:28.791Z,74.71
2023-01-27T19:40:58.113Z,74.61
2023-01-27T19:43:27.890Z,74.37
2023-01-27T19:45:59.270Z,74.21
2023-01-27T19:48:27.933Z,73.94
2023-01-27T19:50:57.532Z,73.93
2023-01-27T19:53:30.267Z,74.17
2023-01-27T19:55:59.193Z,74.20
2023-01-27T19:58:28.911Z,74.59
2023-01-27T20:01:00.128Z,74.90
2023-01-27T20:03:31.058Z,74.99
2023-01-27T20:06:00.539Z,74.94
2023-01-27T20:08:30.621Z,74.82
2023-01-27T20:11:02.031Z,74.72
2023-01-27T20:13:31.883Z,74.65
2023-01-27T20:16:01.394Z,74.64
2023-01-27T20:18:31.503Z,74.68
2023-01-27T20:21:01.017Z,74.88
2023-01-27T20:23:29.999Z,74.99
2023-01-27T20:25:59.197Z,75.13
2023-01-27T20:28:28.700Z,75.22
2023-01-27T20:30:59.944Z,75.05
2023-01-27T20:33:29.157Z,74.88
2023-01-27T20:35:58.347Z,74.94
2023-01-27T20:38:28.061Z,74.98
2023-01-27T20:40:57.461Z,75.04
2023-01-27T20:43:35.265Z,75.30
2023-01-27T20:46:06.647Z,75.38
2023-01-27T20:48:36.109Z,75.55
2023-01-27T20:51:07.805Z,75.46
2023-01-27T20:53:41.987Z,75.79
2023-01-27T20:56:10.564Z,75.57
2023-01-27T20:58:40.587Z,75.55
2023-01-27T21:01:20.355Z,75.55
2023-01-27T21:03:49.355Z,75.63
2023-01-27T21:06:20.304Z,75.83
2023-01-27T21:08:50.708Z,75.76
2023-01-27T21:11:21.601Z,76.15
2023-01-27T21:13:52.165Z,76.19
2023-01-27T21:16:24.349Z,76.31
2023-01-27T21:18:53.819Z,76.09
2023-01-27T21:21:26.379Z,76.03
2023-01-27T21:23:56.068Z,75.96
2023-01-27T21:26:24.910Z,76.06
2023-01-27T21:28:55.630Z,76.24
2023-01-27T21:31:25.601Z,76.47
2023-01-27T21:33:55.703Z,76.80
2023-01-27T21:36:25.379Z,76.85
2023-01-27T21:38:54.271Z,76.75
2023-01-27T21:41:42.714Z,76.75
2023-01-27T21:44:36.395Z,76.81
2023-01-27T21:47:05.988Z,77.00
2023-01-27T21:49:58.534Z,77.00
2023-01-27T21:52:40.642Z,77.43
2023-01-27T21:55:10.871Z,77.55
2023-01-27T21:57:39.335Z,77.65
2023-01-27T22:00:10.681Z,77.57
2023-01-27T22:02:42.541Z,77.67
2023-01-27T22:05:11.597Z,77.61
2023-01-27T22:07:42.490Z,77.61
2023-01-27T22:10:17.199Z,77.67
2023-01-27T22:12:46.505Z,77.79
2023-01-27T22:15:15.863Z,77.65
2023-01-27T22:17:47.993Z,77.50
2023-01-27T22:20:17.475Z,77.61
2023-01-27T22:22:48.312Z,77.32
2023-01-27T22:25:17.778Z,77.47
2023-01-27T22:27:46.529Z,77.63
2023-01-27T22:30:17.133Z,77.83
2023-01-27T22:32:46.579Z,78.06
2023-01-27T22:35:16.130Z,78.02
2023-01-27T22:37:45.339Z,78.17
2023-01-27T22:40:14.846Z,77.80
2023-01-27T22:42:43.371Z,77.94
2023-01-27T22:45:12.976Z,77.90
2023-01-27T22:47:41.875Z,78.24
2023-01-27T22:50:11.433Z,78.41
2023-01-27T22:52:40.262Z,78.35
2023-01-27T22:55:09.963Z,78.59
2023-01-27T22:57:39.329Z,78.45
2023-01-27T23:00:09.917Z,78.47
2023-01-27T23:02:38.348Z,78.29
2023-01-27T23:05:10.010Z,78.43
2023-01-27T23:07:38.476Z,78.42
2023-01-27T23:10:08.184Z,78.61
2023-01-27T23:12:36.692Z,78.69
2023-01-27T23:15:06.171Z,78.70
2023-01-27T23:17:34.858Z,78.56
2023-01-27T23:20:04.299Z,78.52
2023-01-27T23:22:33.491Z,78.59
2023-01-27T23:25:02.258Z,78.64
2023-01-27T23:27:31.131Z,78.67
2023-01-27T23:30:00.443Z,78.62
2023-01-27T23:32:29.334Z,78.93
2023-01-27T23:34:58.112Z,78.97
2023-01-27T23:37:26.795Z,78.91
2023-01-27T23:39:55.897Z,78.56
2023-01-27T23:42:24.785Z,78.70
2023-01-27T23:44:53.569Z,78.59
2023-01-27T23:47:22.188Z,78.58
2023-01-27T23:49:51.045Z,78.79
2023-01-27T23:52:19.631Z,78.88
2023-01-27T23:54:48.416Z,78.90
2023-01-27T23:57:18.329Z,78.67
2023-01-27T23:59:46.985Z,78.72
